createdAt,value
2018-07-30T00:01:42.237Z,100566.63
2018-07-30T00:04:15.867Z,100560.20
2018-07-30T00:06:49.266Z,100561.69
2018-07-30T00:09:22.644Z,100560.73
2018-07-30T00:11:56.040Z,100563.20
2018-07-30T00:14:29.523Z,100560.34
2018-07-30T00:17:02.908Z,100556.66
2018-07-30T00:19:36.357Z,100559.95
2018-07-30T00:22:09.750Z,100560.83
2018-07-30T00:24:43.141Z,100559.60
2018-07-30T00:27:16.506Z,100556.03
2018-07-30T00:29:49.923Z,100553.91
2018-07-30T00:32:23.293Z,100553.17
2018-07-30T00:34:56.667Z,100559.47
2018-07-30T00:37:30.052Z,100559.59
2018-07-30T00:40:03.523Z,100558.85
2018-07-30T00:42:36.890Z,100559.28
2018-07-30T00:45:10.288Z,100557.16
2018-07-30T00:47:43.757Z,100552.50
2018-07-30T00:50:17.160Z,100552.56
2018-07-30T00:52:50.642Z,100555.71
2018-07-30T00:55:24.019Z,100556.20
2018-07-30T00:57:57.383Z,100545.09
2018-07-30T01:00:30.770Z,100550.59
2018-07-30T01:03:04.180Z,100553.59
2018-07-30T01:05:37.595Z,100556.53
2018-07-30T01:08:10.955Z,100556.73
2018-07-30T01:10:44.347Z,100551.83
2018-07-30T01:13:17.714Z,100560.34
2018-07-30T01:15:51.100Z,100561.02
2018-07-30T01:18:24.447Z,100556.08
2018-07-30T01:20:57.934Z,100558.52
2018-07-30T01:23:31.308Z,100555.30
2018-07-30T01:26:09.976Z,100559.88
2018-07-30T01:28:43.355Z,100557.12
2018-07-30T01:31:16.764Z,100560.33
2018-07-30T01:33:50.132Z,100562.92
2018-07-30T01:36:23.523Z,100561.63
2018-07-30T01:38:56.875Z,100563.20
2018-07-30T01:41:30.263Z,100565.16
2018-07-30T01:44:03.722Z,100563.31
2018-07-30T01:46:37.095Z,100568.86
2018-07-30T01:49:10.453Z,100576.78
2018-07-30T01:51:43.828Z,100573.36
2018-07-30T01:54:17.232Z,100575.72
2018-07-30T01:56:50.608Z,100575.25
2018-07-30T01:59:23.974Z,100573.63
2018-07-30T02:01:57.344Z,100580.88
2018-07-30T02:04:30.756Z,100579.22
2018-07-30T02:07:04.178Z,100578.59
2018-07-30T02:09:37.552Z,100582.73
2018-07-30T02:12:10.927Z,100578.05
2018-07-30T02:14:44.322Z,100581.38
2018-07-30T02:17:17.735Z,100585.36
2018-07-30T02:19:51.172Z,100589.18
2018-07-30T02:22:24.524Z,100580.17
2018-07-30T02:24:57.947Z,100582.99
2018-07-30T02:27:31.374Z,100576.74
2018-07-30T02:30:05.992Z,100573.16
2018-07-30T02:32:39.455Z,100576.88
2018-07-30T02:35:12.849Z,100580.78
2018-07-30T02:37:46.284Z,100581.72
2018-07-30T02:40:19.720Z,100583.02
2018-07-30T02:42:53.099Z,100574.16
2018-07-30T02:45:26.527Z,100581.20
2018-07-30T02:48:00.022Z,100578.23
2018-07-30T02:50:33.639Z,100578.95
2018-07-30T02:53:07.033Z,100577.48
2018-07-30T02:55:40.631Z,100575.08
2018-07-30T02:58:14.184Z,100572.98
2018-07-30T03:00:47.890Z,100571.88
2018-07-30T03:03:21.274Z,100571.33
2018-07-30T03:05:54.761Z,100571.41
2018-07-30T03:08:28.119Z,100579.37
2018-07-30T03:11:01.619Z,100579.21
2018-07-30T03:13:35.104Z,100577.66
2018-07-30T03:16:08.557Z,100581.10
2018-07-30T03:18:41.954Z,100591.31
2018-07-30T03:21:15.385Z,100592.69
2018-07-30T03:23:48.752Z,100587.62
2018-07-30T03:26:22.185Z,100582.97
2018-07-30T03:28:55.572Z,100582.50
2018-07-30T03:31:29.060Z,100586.31
2018-07-30T03:34:02.478Z,100579.83
2018-07-30T03:36:35.950Z,100588.16
2018-07-30T03:39:09.782Z,100587.80
2018-07-30T03:41:43.195Z,100592.52
2018-07-30T03:44:16.600Z,100589.56
2018-07-30T03:46:50.017Z,100595.59
2018-07-30T03:49:23.527Z,100581.86
2018-07-30T03:51:56.955Z,100583.16
2018-07-30T03:54:30.356Z,100583.52
2018-07-30T03:57:03.811Z,100583.08
2018-07-30T03:59:38.168Z,100577.78
2018-07-30T04:02:11.588Z,100582.21
2018-07-30T04:04:44.967Z,100593.34
2018-07-30T04:07:19.065Z,100590.67
2018-07-30T04:09:52.531Z,100591.30
2018-07-30T04:12:25.927Z,100599.94
2018-07-30T04:14:59.299Z,100604.08
2018-07-30T04:17:32.729Z,100598.34
2018-07-30T04:20:06.204Z,100603.89
2018-07-30T04:22:39.670Z,100603.71
2018-07-30T04:25:13.090Z,100612.42
2018-07-30T04:27:46.488Z,100607.23
2018-07-30T04:30:19.944Z,100608.05
2018-07-30T04:32:53.344Z,100605.55
2018-07-30T04:35:26.703Z,100602.84
2018-07-30T04:38:00.119Z,100614.80
2018-07-30T04:40:33.492Z,100605.99
2018-07-30T04:43:06.915Z,100608.27
2018-07-30T04:45:40.304Z,100608.97
2018-07-30T04:48:13.731Z,100607.45
2018-07-30T04:50:47.170Z,100614.95
2018-07-30T04:53:20.597Z,100610.37
2018-07-30T04:55:54.091Z,100605.74
2018-07-30T04:58:27.473Z,100608.58
2018-07-30T05:01:00.922Z,100609.74
2018-07-30T05:03:34.366Z,100615.84
2018-07-30T05:06:07.748Z,100614.31
2018-07-30T05:08:41.151Z,100622.73
2018-07-30T05:11:14.622Z,100621.65
2018-07-30T05:13:48.454Z,100626.56
2018-07-30T05:16:22.004Z,100621.63
2018-07-30T05:18:55.392Z,100629.70
2018-07-30T05:21:28.819Z,100627.97
2018-07-30T05:24:02.203Z,100625.57
2018-07-30T05:26:35.639Z,100627.72
2018-07-30T05:29:09.027Z,100631.63
2018-07-30T05:31:42.549Z,100626.40
2018-07-30T05:34:15.834Z,100632.47
2018-07-30T05:36:49.340Z,100634.12
2018-07-30T05:39:22.709Z,100634.84
2018-07-30T05:41:56.104Z,100639.45
2018-07-30T05:44:29.576Z,100645.05
2018-07-30T05:47:02.992Z,100646.61
2018-07-30T05:49:36.391Z,100642.55
2018-07-30T05:52:09.812Z,100645.03
2018-07-30T05:54:43.187Z,100648.62
2018-07-30T05:57:16.599Z,100646.58
2018-07-30T05:59:50.071Z,100649.97
2018-07-30T06:02:23.493Z,100650.45
2018-07-30T06:04:56.880Z,100658.50
2018-07-30T06:07:30.277Z,100651.68
2018-07-30T06:10:03.702Z,100653.22
2018-07-30T06:12:37.133Z,100652.84
2018-07-30T06:15:10.528Z,100653.66
2018-07-30T06:17:43.923Z,100650.55
2018-07-30T06:20:17.441Z,100654.89
2018-07-30T06:22:50.888Z,100653.54
2018-07-30T06:25:24.439Z,100652.84
2018-07-30T06:27:58.046Z,100659.54
2018-07-30T06:30:31.433Z,100663.45
2018-07-30T06:33:04.889Z,100663.30
2018-07-30T06:35:38.275Z,100667.09
2018-07-30T06:38:11.704Z,100666.30
2018-07-30T06:40:45.121Z,100672.67
2018-07-30T06:43:18.565Z,100682.62
2018-07-30T06:45:51.944Z,100674.61
2018-07-30T06:48:25.338Z,100679.09
2018-07-30T06:50:58.764Z,100682.80
2018-07-30T06:53:32.180Z,100683.77
2018-07-30T06:56:05.987Z,100683.27
2018-07-30T06:58:39.399Z,100687.50
2018-07-30T07:01:12.779Z,100685.43
2018-07-30T07:03:46.230Z,100691.38
2018-07-30T07:06:19.656Z,100688.76
2018-07-30T07:08:53.056Z,100692.42
2018-07-30T07:11:26.583Z,100696.62
2018-07-30T07:13:59.992Z,100698.00
2018-07-30T07:16:33.415Z,100701.25
2018-07-30T07:19:06.839Z,100707.82
2018-07-30T07:21:40.308Z,100712.66
2018-07-30T07:24:13.700Z,100709.79
2018-07-30T07:26:47.101Z,100710.61
2018-07-30T07:29:20.524Z,100711.83
2018-07-30T07:31:53.921Z,100715.42
2018-07-30T07:34:27.319Z,100723.75
2018-07-30T07:37:00.704Z,100722.70
2018-07-30T07:39:34.169Z,100728.99
2018-07-30T07:42:07.567Z,100727.73
2018-07-30T07:44:40.948Z,100725.11
2018-07-30T07:47:14.330Z,100731.39
2018-07-30T07:49:47.727Z,100735.83
2018-07-30T07:52:21.104Z,100742.45
2018-07-30T07:54:54.554Z,100741.89
2018-07-30T07:57:28.114Z,100742.84
2018-07-30T08:00:01.557Z,100743.77
2018-07-30T08:02:35.016Z,100748.74
2018-07-30T08:05:08.884Z,100752.78
2018-07-30T08:07:42.248Z,100750.08
2018-07-30T08:10:15.617Z,100744.84
2018-07-30T08:12:49.004Z,100749.86
2018-07-30T08:15:22.416Z,100747.97
2018-07-30T08:17:55.847Z,100744.98
2018-07-30T08:20:29.260Z,100744.56
2018-07-30T08:23:02.660Z,100742.19
2018-07-30T08:25:36.128Z,100746.13
2018-07-30T08:28:09.627Z,100746.25
2018-07-30T08:30:43.052Z,100751.59
2018-07-30T08:33:16.544Z,100755.28
2018-07-30T08:35:49.949Z,100762.42
2018-07-30T08:38:23.363Z,100767.34
2018-07-30T08:40:56.775Z,100768.44
2018-07-30T08:43:30.167Z,100765.18
2018-07-30T08:46:03.589Z,100762.94
2018-07-30T08:48:37.043Z,100762.91
2018-07-30T08:51:10.413Z,100763.16
2018-07-30T08:53:43.887Z,100764.65
2018-07-30T08:56:17.404Z,100758.22
2018-07-30T08:58:50.820Z,100757.50
2018-07-30T09:01:24.214Z,100754.11
2018-07-30T09:03:57.611Z,100754.07
2018-07-30T09:06:30.991Z,100761.41
2018-07-30T09:09:05.967Z,100751.88
2018-07-30T09:11:39.712Z,100751.60
2018-07-30T09:14:13.132Z,100752.23
2018-07-30T09:16:46.539Z,100749.28
2018-07-30T09:19:19.951Z,100749.09
2018-07-30T09:21:53.348Z,100750.23
2018-07-30T09:24:26.740Z,100756.16
2018-07-30T09:27:00.273Z,100758.27
2018-07-30T09:29:33.680Z,100753.53
2018-07-30T09:32:07.156Z,100747.08
2018-07-30T09:34:40.609Z,100750.39
2018-07-30T09:37:13.999Z,100745.41
2018-07-30T09:39:47.399Z,100748.65
2018-07-30T09:42:20.823Z,100755.76
2018-07-30T09:44:54.297Z,100753.41
2018-07-30T09:47:27.671Z,100761.63
2018-07-30T09:50:01.148Z,100755.20
2018-07-30T09:52:34.546Z,100761.14
2018-07-30T09:55:08.161Z,100763.23
2018-07-30T09:57:41.561Z,100764.91
2018-07-30T10:00:17.638Z,100762.34
2018-07-30T10:02:51.107Z,100764.73
2018-07-30T10:05:24.519Z,100767.41
2018-07-30T10:07:57.905Z,100772.69
2018-07-30T10:10:31.358Z,100769.72
2018-07-30T10:13:04.754Z,100769.41
2018-07-30T10:15:38.180Z,100772.37
2018-07-30T10:18:11.612Z,100771.06
2018-07-30T10:20:45.027Z,100771.07
2018-07-30T10:23:18.440Z,100772.55
2018-07-30T10:25:51.836Z,100772.71
2018-07-30T10:28:25.258Z,100770.57
2018-07-30T10:30:58.689Z,100770.39
2018-07-30T10:33:32.908Z,100766.60
2018-07-30T10:36:06.367Z,100771.38
2018-07-30T10:38:39.768Z,100765.41
2018-07-30T10:41:13.202Z,100760.28
2018-07-30T10:43:46.712Z,100767.55
2018-07-30T10:46:20.246Z,100763.88
2018-07-30T10:48:53.575Z,100756.38
2018-07-30T10:51:26.991Z,100760.48
2018-07-30T10:54:00.656Z,100756.73
2018-07-30T10:56:34.088Z,100753.61
2018-07-30T10:59:07.506Z,100752.52
2018-07-30T11:01:40.917Z,100749.23
2018-07-30T11:04:14.275Z,100745.06
2018-07-30T11:06:47.811Z,100738.50
2018-07-30T11:09:21.201Z,100732.83
2018-07-30T11:11:54.605Z,100736.95
2018-07-30T11:14:27.978Z,100730.52
2018-07-30T11:17:01.723Z,100724.34
2018-07-30T11:19:35.109Z,100721.12
2018-07-30T11:22:08.548Z,100723.52
2018-07-30T11:24:41.920Z,100726.32
2018-07-30T11:27:15.335Z,100727.45
2018-07-30T11:29:48.695Z,100735.37
2018-07-30T11:32:22.764Z,100727.08
2018-07-30T11:34:56.186Z,100724.02
2018-07-30T11:37:29.578Z,100727.59
2018-07-30T11:40:03.192Z,100723.81
2018-07-30T11:42:36.581Z,100725.05
2018-07-30T11:45:09.944Z,100728.50
2018-07-30T11:47:43.368Z,100722.75
2018-07-30T11:50:16.764Z,100716.73
2018-07-30T11:52:50.168Z,100718.22
2018-07-30T11:55:23.535Z,100713.13
2018-07-30T11:57:56.925Z,100718.54
2018-07-30T12:00:30.331Z,100720.61
2018-07-30T12:03:03.751Z,100723.02
2018-07-30T12:05:37.119Z,100713.86
2018-07-30T12:08:10.504Z,100712.73
2018-07-30T12:10:43.868Z,100710.01
2018-07-30T12:13:17.284Z,100708.22
2018-07-30T12:15:50.670Z,100706.78
2018-07-30T12:18:24.052Z,100692.26
2018-07-30T12:20:57.470Z,100699.77
2018-07-30T12:23:30.966Z,100690.76
2018-07-30T12:26:04.422Z,100686.36
2018-07-30T12:28:37.797Z,100685.88
2018-07-30T12:31:11.180Z,100683.82
2018-07-30T12:33:44.548Z,100684.59
2018-07-30T12:36:18.020Z,100680.09
2018-07-30T12:38:51.401Z,100682.30
2018-07-30T12:41:24.823Z,100681.36
2018-07-30T12:43:58.218Z,100685.27
2018-07-30T12:46:31.639Z,100679.69
2018-07-30T12:49:05.241Z,100680.21
2018-07-30T12:51:38.649Z,100678.94
2018-07-30T12:54:12.016Z,100676.03
2018-07-30T12:56:45.454Z,100676.45
2018-07-30T12:59:18.915Z,100674.36
2018-07-30T13:01:52.345Z,100671.39
2018-07-30T13:04:25.716Z,100670.36
2018-07-30T13:06:59.186Z,100662.70
2018-07-30T13:09:32.573Z,100660.72
2018-07-30T13:12:06.233Z,100660.28
2018-07-30T13:14:39.610Z,100668.23
2018-07-30T13:17:13.043Z,100663.06
2018-07-30T13:19:46.407Z,100653.68
2018-07-30T13:22:26.436Z,100655.47
2018-07-30T13:24:59.852Z,100653.48
2018-07-30T13:27:33.292Z,100647.73
2018-07-30T13:30:08.135Z,100644.86
2018-07-30T13:32:41.594Z,100647.73
2018-07-30T13:35:14.983Z,100647.17
2018-07-30T13:37:49.024Z,100647.45
2018-07-30T13:40:22.516Z,100648.86
2018-07-30T13:42:56.186Z,100645.77
2018-07-30T13:45:30.277Z,100641.72
2018-07-30T13:48:03.694Z,100644.59
2018-07-30T13:50:37.069Z,100637.16
2018-07-30T13:53:10.484Z,100631.33
2018-07-30T13:55:43.847Z,100627.12
2018-07-30T13:58:17.336Z,100625.46
2018-07-30T14:00:50.710Z,100624.58
2018-07-30T14:03:24.150Z,100620.88
2018-07-30T14:05:57.716Z,100623.90
2018-07-30T14:08:32.925Z,100621.55
2018-07-30T14:11:06.698Z,100617.73
2018-07-30T14:13:40.092Z,100606.78
2018-07-30T14:16:13.486Z,100602.16
2018-07-30T14:18:46.907Z,100608.76
2018-07-30T14:21:20.324Z,100620.94
2018-07-30T14:23:53.776Z,100613.78
2018-07-30T14:26:27.152Z,100608.75
2018-07-30T14:29:00.553Z,100612.97
2018-07-30T14:31:33.968Z,100610.77
2018-07-30T14:34:07.535Z,100611.84
2018-07-30T14:36:40.935Z,100597.86
2018-07-30T14:39:14.357Z,100606.19
2018-07-30T14:41:47.828Z,100604.62
2018-07-30T14:44:21.269Z,100603.23
2018-07-30T14:46:54.688Z,100604.43
2018-07-30T14:49:28.129Z,100604.05
2018-07-30T14:52:01.544Z,100612.53
2018-07-30T14:54:34.987Z,100603.37
2018-07-30T14:57:08.347Z,100604.13
2018-07-30T14:59:41.900Z,100600.64
2018-07-30T15:02:15.207Z,100601.52
2018-07-30T15:04:48.673Z,100602.95
2018-07-30T15:07:22.078Z,100599.25
2018-07-30T15:09:55.481Z,100603.98
2018-07-30T15:12:28.871Z,100604.80
2018-07-30T15:15:02.288Z,100600.89
2018-07-30T15:17:35.703Z,100600.20
2018-07-30T15:20:09.162Z,100598.62
2018-07-30T15:22:42.572Z,100593.44
2018-07-30T15:25:16.004Z,100592.19
2018-07-30T15:27:49.460Z,100593.33
2018-07-30T15:30:22.884Z,100581.42
2018-07-30T15:32:56.282Z,100583.95
2018-07-30T15:35:29.656Z,100580.30
2018-07-30T15:38:03.221Z,100589.68
2018-07-30T15:40:36.713Z,100585.20
2018-07-30T15:43:10.093Z,100581.62
2018-07-30T15:45:43.464Z,100585.04
2018-07-30T15:48:16.915Z,100581.11
2018-07-30T15:50:50.441Z,100582.39
2018-07-30T15:53:23.858Z,100582.39
2018-07-30T15:55:57.302Z,100580.45
2018-07-30T15:58:30.751Z,100584.49
2018-07-30T16:01:04.183Z,100582.81
2018-07-30T16:03:37.580Z,100583.96
2018-07-30T16:06:10.947Z,100580.77
2018-07-30T16:08:44.368Z,100580.41
2018-07-30T16:11:17.764Z,100576.99
2018-07-30T16:13:51.374Z,100581.52
2018-07-30T16:16:24.816Z,100580.15
2018-07-30T16:18:58.213Z,100580.00
2018-07-30T16:21:31.623Z,100577.64
2018-07-30T16:24:05.096Z,100575.20
2018-07-30T16:26:38.505Z,100572.19
2018-07-30T16:29:11.912Z,100572.14
2018-07-30T16:31:45.409Z,100573.36
2018-07-30T16:34:18.869Z,100577.28
2018-07-30T16:36:52.272Z,100570.95
2018-07-30T16:39:26.200Z,100568.39
2018-07-30T16:41:59.598Z,100559.43
2018-07-30T16:44:33.011Z,100569.64
2018-07-30T16:47:06.533Z,100568.05
2018-07-30T16:49:39.862Z,100566.88
2018-07-30T16:52:13.228Z,100568.05
2018-07-30T16:54:47.319Z,100561.73
2018-07-30T16:57:20.751Z,100553.25
2018-07-30T16:59:54.182Z,100562.81
2018-07-30T17:02:27.815Z,100569.89
2018-07-30T17:05:01.197Z,100567.30
2018-07-30T17:07:35.338Z,100564.41
2018-07-30T17:10:08.816Z,100568.52
2018-07-30T17:12:42.375Z,100569.45
2018-07-30T17:15:15.883Z,100575.72
2018-07-30T17:17:49.290Z,100570.90
2018-07-30T17:20:22.931Z,100572.98
2018-07-30T17:22:56.282Z,100579.52
2018-07-30T17:25:29.669Z,100579.33
2018-07-30T17:28:03.159Z,100578.36
2018-07-30T17:30:36.565Z,100575.45
2018-07-30T17:33:10.706Z,100580.14
2018-07-30T17:35:44.136Z,100579.36
2018-07-30T17:38:17.602Z,100580.59
2018-07-30T17:40:51.008Z,100580.11
2018-07-30T17:43:25.837Z,100584.42
2018-07-30T17:45:59.556Z,100588.55
2018-07-30T17:48:33.026Z,100586.91
2018-07-30T17:51:07.180Z,100593.05
2018-07-30T17:53:40.558Z,100593.91
2018-07-30T17:56:13.984Z,100591.77
2018-07-30T17:58:47.436Z,100593.16
2018-07-30T18:01:21.225Z,100593.85
2018-07-30T18:03:56.777Z,100600.50
2018-07-30T18:06:30.740Z,100597.38
2018-07-30T18:09:05.896Z,100600.36
2018-07-30T18:11:39.532Z,100597.91
2018-07-30T18:14:12.928Z,100601.73
2018-07-30T18:16:46.347Z,100603.55
2018-07-30T18:19:19.743Z,100604.50
2018-07-30T18:21:53.179Z,100603.70
2018-07-30T18:24:26.656Z,100607.63
2018-07-30T18:27:00.047Z,100608.62
2018-07-30T18:29:33.877Z,100606.13
2018-07-30T18:32:07.481Z,100608.26
2018-07-30T18:34:41.124Z,100608.05
2018-07-30T18:37:14.540Z,100608.16
2018-07-30T18:39:47.989Z,100607.66
2018-07-30T18:42:21.379Z,100610.09
2018-07-30T18:44:55.092Z,100609.07
2018-07-30T18:47:28.567Z,100609.80
2018-07-30T18:50:02.828Z,100611.39
2018-07-30T18:52:36.451Z,100613.48
2018-07-30T18:55:09.906Z,100610.64
2018-07-30T18:57:43.351Z,100616.97
2018-07-30T19:00:16.850Z,100618.26
2018-07-30T19:02:51.019Z,100626.55
2018-07-30T19:05:24.721Z,100628.45
2018-07-30T19:07:58.373Z,100631.97
2018-07-30T19:10:32.122Z,100638.26
2018-07-30T19:13:05.581Z,100638.72
2018-07-30T19:15:39.536Z,100647.27
2018-07-30T19:18:13.014Z,100640.28
2018-07-30T19:20:46.476Z,100643.14
2018-07-30T19:23:19.912Z,100656.17
2018-07-30T19:25:53.541Z,100655.77
2018-07-30T19:28:26.968Z,100654.98
2018-07-30T19:31:00.536Z,100653.87
2018-07-30T19:33:34.129Z,100656.86
2018-07-30T19:36:07.556Z,100658.33
2018-07-30T19:38:40.927Z,100657.05
2018-07-30T19:41:14.900Z,100651.64
2018-07-30T19:43:48.340Z,100654.72
2018-07-30T19:46:21.762Z,100655.72
2018-07-30T19:48:55.096Z,100657.21
2018-07-30T19:51:28.407Z,100659.84
2018-07-30T19:54:02.270Z,100655.69
2018-07-30T19:56:36.253Z,100656.88
2018-07-30T19:59:09.764Z,100664.80
2018-07-30T20:01:43.371Z,100669.69
2018-07-30T20:04:16.658Z,100673.38
2018-07-30T20:06:50.666Z,100674.85
2018-07-30T20:09:23.967Z,100674.71
2018-07-30T20:11:57.418Z,100680.64
2018-07-30T20:14:30.872Z,100678.48
2018-07-30T20:17:05.029Z,100676.90
2018-07-30T20:19:38.263Z,100678.39
2018-07-30T20:22:11.949Z,100677.80
2018-07-30T20:24:45.460Z,100681.34
2018-07-30T20:27:19.536Z,100673.33
2018-07-30T20:29:52.906Z,100680.63
2018-07-30T20:32:27.047Z,100673.25
2018-07-30T20:35:00.449Z,100673.56
2018-07-30T20:37:34.048Z,100667.11
2018-07-30T20:40:07.477Z,100665.73
2018-07-30T20:42:40.860Z,100677.28
2018-07-30T20:45:14.156Z,100682.09
2018-07-30T20:47:47.471Z,100674.15
2018-07-30T20:50:20.785Z,100682.84
2018-07-30T20:52:54.128Z,100683.18
2018-07-30T20:55:27.481Z,100685.02
2018-07-30T20:58:00.844Z,100687.66
2018-07-30T21:00:34.773Z,100683.63
2018-07-30T21:03:08.186Z,100683.29
2018-07-30T21:05:44.339Z,100677.38
2018-07-30T21:08:17.708Z,100680.97
2018-07-30T21:10:51.072Z,100695.49
2018-07-30T21:13:24.397Z,100681.95
2018-07-30T21:15:57.736Z,100684.98
2018-07-30T21:18:31.077Z,100689.48
2018-07-30T21:21:04.949Z,100689.14
2018-07-30T21:23:38.337Z,100683.19
2018-07-30T21:26:11.577Z,100692.59
2018-07-30T21:28:44.897Z,100686.91
2018-07-30T21:31:18.197Z,100686.22
2018-07-30T21:33:51.506Z,100683.95
2018-07-30T21:36:24.789Z,100688.83
2018-07-30T21:38:58.116Z,100685.25
2018-07-30T21:41:31.522Z,100692.02
2018-07-30T21:44:05.180Z,100689.78
2018-07-30T21:48:03.035Z,100691.91
2018-07-30T21:50:37.301Z,100694.55
2018-07-30T21:53:10.656Z,100685.99
2018-07-30T21:55:43.961Z,100685.64
2018-07-30T21:58:17.280Z,100687.17
2018-07-30T22:00:57.445Z,100691.70
2018-07-30T22:03:30.753Z,100694.53
2018-07-30T22:06:04.173Z,100693.12
2018-07-30T22:08:37.505Z,100694.20
2018-07-30T22:11:10.824Z,100697.52
2018-07-30T22:13:44.142Z,100694.28
2018-07-30T22:16:17.461Z,100694.36
2018-07-30T22:18:50.798Z,100699.23
2018-07-30T22:21:24.238Z,100696.75
2018-07-30T22:23:57.609Z,100700.41
2018-07-30T22:26:30.921Z,100697.78
2018-07-30T22:29:04.940Z,100704.91
2018-07-30T22:31:38.250Z,100702.05
2018-07-30T22:34:11.706Z,100697.80
2018-07-30T22:36:45.178Z,100704.90
2018-07-30T22:39:18.658Z,100699.40
2018-07-30T22:41:52.171Z,100709.71
2018-07-30T22:44:25.621Z,100707.45
2018-07-30T22:46:58.983Z,100701.86
2018-07-30T22:49:32.408Z,100704.56
2018-07-30T22:52:06.642Z,100703.95
2018-07-30T22:54:40.081Z,100706.81
2018-07-30T22:57:13.585Z,100707.77
2018-07-30T22:59:47.249Z,100703.52
2018-07-30T23:02:20.661Z,100709.17
2018-07-30T23:04:54.093Z,100706.12
2018-07-30T23:07:27.473Z,100701.09
2018-07-30T23:10:00.873Z,100698.70
2018-07-30T23:12:35.223Z,100702.48
2018-07-30T23:15:08.617Z,100701.40
2018-07-30T23:17:41.975Z,100708.94
2018-07-30T23:20:15.288Z,100709.28
2018-07-30T23:22:48.679Z,100707.72
2018-07-30T23:25:22.163Z,100703.11
2018-07-30T23:27:55.485Z,100701.89
2018-07-30T23:30:28.858Z,100699.77
2018-07-30T23:33:02.193Z,100702.23
2018-07-30T23:35:36.068Z,100699.02
2018-07-30T23:38:09.436Z,100697.36
2018-07-30T23:40:42.828Z,100691.55
2018-07-30T23:43:16.189Z,100696.84
2018-07-30T23:45:49.512Z,100686.55
2018-07-30T23:48:22.828Z,100693.75
2018-07-30T23:50:56.138Z,100691.02
2018-07-30T23:53:29.462Z,100680.20
2018-07-30T23:56:02.804Z,100682.94
2018-07-30T23:58:36.803Z,100685.69
